sensor_id;sensor_type;location;lat;lon;timestamp;pressure;altitude;pressure_sealevel;temperature;humidity
55610;BME280;41486;52.502;13.486;2024-01-30T00:02:20;102385.91;;;1.94;100.00
55610;BME280;41486;52.502;13.486;2024-01-30T00:04:48;102382.31;;;2.06;100.00
55610;BME280;41486;52.502;13.486;2024-01-30T00:07:16;102383.09;;;2.13;100.00
55610;BME280;41486;52.502;13.486;2024-01-30T00:09:46;102386.59;;;2.09;100.00
55610;BME280;41486;52.502;13.486;2024-01-30T00:12:14;102383.19;;;2.07;100.00
55610;BME280;41486;52.502;13.486;2024-01-30T00:14:44;102390.91;;;2.13;100.00
55610;BME280;41486;52.502;13.486;2024-01-30T00:17:12;102384.81;;;2.14;100.00
55610;BME280;41486;52.502;13.486;2024-01-30T00:19:40;102393.47;;;2.14;100.00
55610;BME280;41486;52.502;13.486;2024-01-30T00:22:08;102397.81;;;2.14;100.00
55610;BME280;41486;52.502;13.486;2024-01-30T00:24:37;102394.53;;;1.99;100.00
55610;BME280;41486;52.502;13.486;2024-01-30T00:27:05;102393.56;;;2.08;100.00
55610;BME280;41486;52.502;13.486;2024-01-30T00:29:33;102391.78;;;2.09;100.00
55610;BME280;41486;52.502;13.486;2024-01-30T00:32:02;102386.03;;;1.86;100.00
55610;BME280;41486;52.502;13.486;2024-01-30T00:34:31;102390.13;;;2.04;100.00
55610;BME280;41486;52.502;13.486;2024-01-30T00:36:59;102387.81;;;1.80;100.00
55610;BME280;41486;52.502;13.486;2024-01-30T00:39:27;102383.38;;;1.89;100.00
55610;BME280;41486;52.502;13.486;2024-01-30T00:41:55;102388.69;;;1.80;100.00
55610;BME280;41486;52.502;13.486;2024-01-30T00:44:23;102382.53;;;1.89;100.00
55610;BME280;41486;52.502;13.486;2024-01-30T00:46:51;102384.31;;;1.85;100.00
55610;BME280;41486;52.502;13.486;2024-01-30T00:49:21;102384.03;;;2.07;100.00
55610;BME280;41486;52.502;13.486;2024-01-30T00:51:49;102381.69;;;1.87;100.00
55610;BME280;41486;52.502;13.486;2024-01-30T00:54:17;102379.06;;;1.90;100.00
55610;BME280;41486;52.502;13.486;2024-01-30T00:56:45;102377.53;;;1.73;100.00
55610;BME280;41486;52.502;13.486;2024-01-30T00:59:13;102379.97;;;1.87;100.00
55610;BME280;41486;52.502;13.486;2024-01-30T01:01:41;102386.16;;;1.74;100.00
55610;BME280;41486;52.502;13.486;2024-01-30T01:04:09;102383.59;;;1.72;100.00
55610;BME280;41486;52.502;13.486;2024-01-30T01:06:39;102384.47;;;1.70;100.00
55610;BME280;41486;52.502;13.486;2024-01-30T01:09:10;102386.31;;;1.62;100.00
55610;BME280;41486;52.502;13.486;2024-01-30T01:11:40;102376.66;;;1.75;100.00
55610;BME280;41486;52.502;13.486;2024-01-30T01:14:08;102378.63;;;1.52;100.00
55610;BME280;41486;52.502;13.486;2024-01-30T01:16:37;102375.78;;;1.74;100.00
55610;BME280;41486;52.502;13.486;2024-01-30T01:19:05;102378.44;;;1.68;100.00
55610;BME280;41486;52.502;13.486;2024-01-30T01:21:33;102384.56;;;1.62;100.00
55610;BME280;41486;52.502;13.486;2024-01-30T01:24:03;102380.50;;;1.35;100.00
55610;BME280;41486;52.502;13.486;2024-01-30T01:26:31;102383.88;;;1.46;100.00
55610;BME280;41486;52.502;13.486;2024-01-30T01:28:59;102384.59;;;1.61;100.00
55610;BME280;41486;52.502;13.486;2024-01-30T01:31:27;102383.13;;;1.33;100.00
55610;BME280;41486;52.502;13.486;2024-01-30T01:33:56;102386.59;;;1.32;100.00
55610;BME280;41486;52.502;13.486;2024-01-30T01:36:24;102378.97;;;1.14;100.00
55610;BME280;41486;52.502;13.486;2024-01-30T01:38:52;102377.28;;;1.09;100.00
55610;BME280;41486;52.502;13.486;2024-01-30T01:41:22;102374.75;;;1.02;100.00
55610;BME280;41486;52.502;13.486;2024-01-30T01:43:50;102374.81;;;0.99;100.00
55610;BME280;41486;52.502;13.486;2024-01-30T01:46:18;102366.19;;;0.93;100.00
55610;BME280;41486;52.502;13.486;2024-01-30T01:48:46;102372.19;;;0.97;100.00
55610;BME280;41486;52.502;13.486;2024-01-30T01:51:15;102374.88;;;0.89;100.00
55610;BME280;41486;52.502;13.486;2024-01-30T01:53:44;102370.59;;;0.84;100.00
55610;BME280;41486;52.502;13.486;2024-01-30T01:56:12;102378.31;;;0.91;100.00
55610;BME280;41486;52.502;13.486;2024-01-30T01:58:44;102373.97;;;0.93;100.00
55610;BME280;41486;52.502;13.486;2024-01-30T02:01:14;102367.84;;;1.01;100.00
55610;BME280;41486;52.502;13.486;2024-01-30T02:03:44;102367.91;;;0.96;100.00
55610;BME280;41486;52.502;13.486;2024-01-30T02:06:13;102367.69;;;1.19;100.00
55610;BME280;41486;52.502;13.486;2024-01-30T02:08:42;102369.50;;;1.11;100.00
55610;BME280;41486;52.502;13.486;2024-01-30T02:11:11;102371.84;;;1.36;100.00
55610;BME280;41486;52.502;13.486;2024-01-30T02:13:42;102375.44;;;1.24;100.00
55610;BME280;41486;52.502;13.486;2024-01-30T02:16:10;102375.75;;;0.88;100.00
55610;BME280;41486;52.502;13.486;2024-01-30T02:18:38;102375.69;;;0.93;100.00
55610;BME280;41486;52.502;13.486;2024-01-30T02:21:19;102367.00;;;1.03;100.00
55610;BME280;41486;52.502;13.486;2024-01-30T02:23:48;102372.97;;;1.08;100.00
55610;BME280;41486;52.502;13.486;2024-01-30T02:26:16;102376.38;;;1.17;100.00
55610;BME280;41486;52.502;13.486;2024-01-30T02:28:44;102373.06;;;0.98;100.00
55610;BME280;41486;52.502;13.486;2024-01-30T02:31:12;102370.41;;;1.07;100.00
55610;BME280;41486;52.502;13.486;2024-01-30T02:33:40;102366.03;;;1.12;100.00
55610;BME280;41486;52.502;13.486;2024-01-30T02:36:08;102371.34;;;0.97;100.00
55610;BME280;41486;52.502;13.486;2024-01-30T02:38:38;102363.53;;;1.01;100.00
55610;BME280;41486;52.502;13.486;2024-01-30T02:41:06;102372.25;;;0.94;100.00
55610;BME280;41486;52.502;13.486;2024-01-30T02:43:34;102374.72;;;1.08;100.00
55610;BME280;41486;52.502;13.486;2024-01-30T02:46:02;102368.66;;;1.10;100.00
55610;BME280;41486;52.502;13.486;2024-01-30T02:48:30;102366.69;;;1.34;100.00
55610;BME280;41486;52.502;13.486;2024-01-30T02:50:58;102360.91;;;1.04;100.00
55610;BME280;41486;52.502;13.486;2024-01-30T02:53:27;102362.56;;;1.13;100.00
55610;BME280;41486;52.502;13.486;2024-01-30T02:55:57;102356.50;;;1.16;100.00
55610;BME280;41486;52.502;13.486;2024-01-30T02:58:25;102359.03;;;1.20;100.00
55610;BME280;41486;52.502;13.486;2024-01-30T03:00:53;102357.25;;;1.27;100.00
55610;BME280;41486;52.502;13.486;2024-01-30T03:03:21;102356.38;;;1.26;100.00
55610;BME280;41486;52.502;13.486;2024-01-30T03:05:50;102354.47;;;1.44;100.00
55610;BME280;41486;52.502;13.486;2024-01-30T03:08:18;102351.03;;;1.45;100.00
55610;BME280;41486;52.502;13.486;2024-01-30T03:10:46;102355.41;;;1.38;100.00
55610;BME280;41486;52.502;13.486;2024-01-30T03:13:15;102351.22;;;1.25;100.00
55610;BME280;41486;52.502;13.486;2024-01-30T03:15:43;102352.94;;;1.24;100.00
55610;BME280;41486;52.502;13.486;2024-01-30T03:18:12;102344.38;;;1.18;100.00
55610;BME280;41486;52.502;13.486;2024-01-30T03:20:40;102345.13;;;1.28;100.00
55610;BME280;41486;52.502;13.486;2024-01-30T03:23:08;102340.91;;;1.19;100.00
55610;BME280;41486;52.502;13.486;2024-01-30T03:25:36;102342.72;;;1.10;100.00
55610;BME280;41486;52.502;13.486;2024-01-30T03:28:04;102343.47;;;1.20;100.00
55610;BME280;41486;52.502;13.486;2024-01-30T03:30:35;102342.75;;;1.07;100.00
55610;BME280;41486;52.502;13.486;2024-01-30T03:33:02;102344.56;;;0.94;100.00
55610;BME280;41486;52.502;13.486;2024-01-30T03:35:31;102335.06;;;0.93;100.00
55610;BME280;41486;52.502;13.486;2024-01-30T03:37:59;102337.69;;;0.89;100.00
55610;BME280;41486;52.502;13.486;2024-01-30T03:40:27;102340.28;;;0.95;100.00
55610;BME280;41486;52.502;13.486;2024-01-30T03:42:55;102338.47;;;1.02;100.00
55610;BME280;41486;52.502;13.486;2024-01-30T03:45:25;102343.53;;;1.13;100.00
55610;BME280;41486;52.502;13.486;2024-01-30T03:47:54;102344.53;;;1.02;100.00
55610;BME280;41486;52.502;13.486;2024-01-30T03:50:23;102338.38;;;1.14;100.00
55610;BME280;41486;52.502;13.486;2024-01-30T03:52:51;102337.56;;;1.06;100.00
55610;BME280;41486;52.502;13.486;2024-01-30T03:55:20;102335.78;;;1.11;100.00
55610;BME280;41486;52.502;13.486;2024-01-30T03:57:48;102336.56;;;1.21;100.00
55610;BME280;41486;52.502;13.486;2024-01-30T04:00:17;102330.72;;;1.00;100.00
55610;BME280;41486;52.502;13.486;2024-01-30T04:02:45;102323.63;;;1.18;100.00
55610;BME280;41486;52.502;13.486;2024-01-30T04:05:15;102335.03;;;1.00;100.00
55610;BME280;41486;52.502;13.486;2024-01-30T04:07:43;102330.81;;;0.89;100.00
55610;BME280;41486;52.502;13.486;2024-01-30T04:10:11;102335.03;;;0.98;100.00
55610;BME280;41486;52.502;13.486;2024-01-30T04:12:39;102335.06;;;0.93;100.00
55610;BME280;41486;52.502;13.486;2024-01-30T04:15:08;102326.31;;;1.08;100.00
55610;BME280;41486;52.502;13.486;2024-01-30T04:17:36;102335.09;;;0.95;100.00
55610;BME280;41486;52.502;13.486;2024-01-30T04:20:05;102337.69;;;0.92;100.00
55610;BME280;41486;52.502;13.486;2024-01-30T04:22:35;102335.94;;;0.94;100.00
55610;BME280;41486;52.502;13.486;2024-01-30T04:25:03;102342.69;;;1.12;100.00
55610;BME280;41486;52.502;13.486;2024-01-30T04:27:31;102339.41;;;0.93;100.00
55610;BME280;41486;52.502;13.486;2024-01-30T04:30:00;102337.75;;;0.83;100.00
55610;BME280;41486;52.502;13.486;2024-01-30T04:32:28;102344.69;;;0.82;100.00
55610;BME280;41486;52.502;13.486;2024-01-30T04:34:56;102337.66;;;0.93;100.00
55610;BME280;41486;52.502;13.486;2024-01-30T04:37:24;102342.84;;;0.95;100.00
55610;BME280;41486;52.502;13.486;2024-01-30T04:39:54;102335.06;;;0.97;100.00
55610;BME280;41486;52.502;13.486;2024-01-30T04:42:22;102325.50;;;1.02;100.00
55610;BME280;41486;52.502;13.486;2024-01-30T04:44:50;102331.63;;;0.96;100.00
55610;BME280;41486;52.502;13.486;2024-01-30T04:47:18;102323.94;;;0.84;100.00
55610;BME280;41486;52.502;13.486;2024-01-30T04:49:46;102325.81;;;0.65;100.00
55610;BME280;41486;52.502;13.486;2024-01-30T04:52:14;102322.44;;;0.56;100.00
55610;BME280;41486;52.502;13.486;2024-01-30T04:54:42;102324.88;;;0.75;100.00
55610;BME280;41486;52.502;13.486;2024-01-30T04:57:12;102312.66;;;0.89;100.00
55610;BME280;41486;52.502;13.486;2024-01-30T04:59:40;102328.25;;;0.82;100.00
55610;BME280;41486;52.502;13.486;2024-01-30T05:02:08;102323.91;;;0.88;100.00
55610;BME280;41486;52.502;13.486;2024-01-30T05:04:36;102332.47;;;0.93;100.00
55610;BME280;41486;52.502;13.486;2024-01-30T05:07:05;102329.94;;;0.90;100.00
55610;BME280;41486;52.502;13.486;2024-01-30T05:09:33;102332.63;;;0.80;100.00
55610;BME280;41486;52.502;13.486;2024-01-30T05:12:01;102329.03;;;0.93;100.00
55610;BME280;41486;52.502;13.486;2024-01-30T05:14:30;102328.94;;;1.04;100.00
55610;BME280;41486;52.502;13.486;2024-01-30T05:16:58;102331.44;;;1.13;100.00
55610;BME280;41486;52.502;13.486;2024-01-30T05:19:26;102327.97;;;1.13;100.00
55610;BME280;41486;52.502;13.486;2024-01-30T05:21:55;102322.81;;;1.11;100.00
55610;BME280;41486;52.502;13.486;2024-01-30T05:24:23;102332.16;;;1.28;100.00
55610;BME280;41486;52.502;13.486;2024-01-30T05:26:53;102331.50;;;1.08;100.00
55610;BME280;41486;52.502;13.486;2024-01-30T05:29:21;102330.72;;;0.99;100.00
55610;BME280;41486;52.502;13.486;2024-01-30T05:31:51;102321.25;;;0.94;100.00
55610;BME280;41486;52.502;13.486;2024-01-30T05:34:19;102328.13;;;1.00;100.00
55610;BME280;41486;52.502;13.486;2024-01-30T05:36:47;102326.34;;;1.04;100.00
55610;BME280;41486;52.502;13.486;2024-01-30T05:39:15;102334.91;;;1.15;100.00
55610;BME280;41486;52.502;13.486;2024-01-30T05:41:43;102330.66;;;1.08;100.00
55610;BME280;41486;52.502;13.486;2024-01-30T05:44:11;102322.03;;;1.06;100.00
55610;BME280;41486;52.502;13.486;2024-01-30T05:46:40;102319.25;;;1.23;100.00
55610;BME280;41486;52.502;13.486;2024-01-30T05:49:09;102312.25;;;1.31;100.00
55610;BME280;41486;52.502;13.486;2024-01-30T05:51:37;102316.75;;;1.15;100.00
55610;BME280;41486;52.502;13.486;2024-01-30T05:54:05;102321.03;;;1.18;100.00
55610;BME280;41486;52.502;13.486;2024-01-30T05:56:33;102316.91;;;1.00;100.00
55610;BME280;41486;52.502;13.486;2024-01-30T05:59:01;102322.84;;;1.09;100.00
55610;BME280;41486;52.502;13.486;2024-01-30T06:01:29;102313.53;;;0.85;100.00
55610;BME280;41486;52.502;13.486;2024-01-30T06:03:58;102317.69;;;1.05;100.00
55610;BME280;41486;52.502;13.486;2024-01-30T06:06:27;102317.75;;;0.99;100.00
55610;BME280;41486;52.502;13.486;2024-01-30T06:08:55;102316.06;;;0.94;100.00
55610;BME280;41486;52.502;13.486;2024-01-30T06:11:23;102317.81;;;0.91;100.00
55610;BME280;41486;52.502;13.486;2024-01-30T06:13:51;102320.41;;;0.94;100.00
55610;BME280;41486;52.502;13.486;2024-01-30T06:16:19;102314.28;;;0.98;100.00
55610;BME280;41486;52.502;13.486;2024-01-30T06:18:48;102320.31;;;1.03;100.00
55610;BME280;41486;52.502;13.486;2024-01-30T06:21:17;102321.09;;;1.12;100.00
55610;BME280;41486;52.502;13.486;2024-01-30T06:23:46;102316.00;;;1.02;100.00
55610;BME280;41486;52.502;13.486;2024-01-30T06:26:14;102316.16;;;0.87;100.00
55610;BME280;41486;52.502;13.486;2024-01-30T06:28:45;102311.75;;;0.95;100.00
55610;BME280;41486;52.502;13.486;2024-01-30T06:31:14;102312.50;;;1.05;100.00
55610;BME280;41486;52.502;13.486;2024-01-30T06:33:42;102305.69;;;0.96;100.00
55610;BME280;41486;52.502;13.486;2024-01-30T06:36:10;102310.91;;;0.93;100.00
55610;BME280;41486;52.502;13.486;2024-01-30T06:38:38;102309.16;;;0.95;100.00
55610;BME280;41486;52.502;13.486;2024-01-30T06:41:07;102306.47;;;1.06;100.00
55610;BME280;41486;52.502;13.486;2024-01-30T06:43:35;102312.44;;;1.13;100.00
55610;BME280;41486;52.502;13.486;2024-01-30T06:46:04;102309.91;;;1.08;100.00
55610;BME280;41486;52.502;13.486;2024-01-30T06:48:32;102311.63;;;1.04;100.00
55610;BME280;41486;52.502;13.486;2024-01-30T06:51:00;102300.25;;;1.21;100.00
55610;BME280;41486;52.502;13.486;2024-01-30T06:53:28;102310.63;;;1.21;100.00
55610;BME280;41486;52.502;13.486;2024-01-30T06:55:58;102310.56;;;1.27;100.00
55610;BME280;41486;52.502;13.486;2024-01-30T06:58:27;102311.50;;;1.21;100.00
55610;BME280;41486;52.502;13.486;2024-01-30T07:00:56;102319.53;;;0.95;100.00
55610;BME280;41486;52.502;13.486;2024-01-30T07:03:24;102310.09;;;0.86;100.00
55610;BME280;41486;52.502;13.486;2024-01-30T07:05:52;102310.91;;;0.93;100.00
55610;BME280;41486;52.502;13.486;2024-01-30T07:08:20;102322.09;;;1.00;100.00
55610;BME280;41486;52.502;13.486;2024-01-30T07:10:50;102316.91;;;1.00;100.00
55610;BME280;41486;52.502;13.486;2024-01-30T07:13:25;102313.44;;;0.98;100.00
55610;BME280;41486;52.502;13.486;2024-01-30T07:15:55;102313.44;;;0.98;100.00
55610;BME280;41486;52.502;13.486;2024-01-30T07:18:23;102314.34;;;0.92;100.00
55610;BME280;41486;52.502;13.486;2024-01-30T07:20:51;102314.34;;;0.93;100.00
55610;BME280;41486;52.502;13.486;2024-01-30T07:23:19;102311.78;;;0.89;100.00
55610;BME280;41486;52.502;13.486;2024-01-30T07:25:47;102308.34;;;0.91;100.00
55610;BME280;41486;52.502;13.486;2024-01-30T07:28:17;102315.22;;;0.91;100.00
55610;BME280;41486;52.502;13.486;2024-01-30T07:30:45;102310.06;;;0.89;100.00
55610;BME280;41486;52.502;13.486;2024-01-30T07:33:16;102302.91;;;1.15;100.00
55610;BME280;41486;52.502;13.486;2024-01-30T07:35:45;102303.78;;;1.15;100.00
55610;BME280;41486;52.502;13.486;2024-01-30T07:38:13;102296.84;;;1.16;100.00
55610;BME280;41486;52.502;13.486;2024-01-30T07:40:41;102299.47;;;1.11;100.00
55610;BME280;41486;52.502;13.486;2024-01-30T07:43:09;102301.03;;;1.31;100.00
55610;BME280;41486;52.502;13.486;2024-01-30T07:45:38;102307.06;;;1.31;100.00
55610;BME280;41486;52.502;13.486;2024-01-30T07:48:06;102302.94;;;1.10;100.00
55610;BME280;41486;52.502;13.486;2024-01-30T07:50:36;102302.78;;;1.29;100.00
55610;BME280;41486;52.502;13.486;2024-01-30T07:53:08;102307.81;;;1.41;100.00
55610;BME280;41486;52.502;13.486;2024-01-30T07:55:36;102299.97;;;1.47;100.00
55610;BME280;41486;52.502;13.486;2024-01-30T07:58:04;102302.56;;;1.47;100.00
55610;BME280;41486;52.502;13.486;2024-01-30T08:00:32;102293.88;;;1.51;100.00
55610;BME280;41486;52.502;13.486;2024-01-30T08:03:02;102305.03;;;1.58;100.00
55610;BME280;41486;52.502;13.486;2024-01-30T08:05:31;102304.13;;;1.64;100.00
55610;BME280;41486;52.502;13.486;2024-01-30T08:08:01;102306.63;;;1.70;100.00
55610;BME280;41486;52.502;13.486;2024-01-30T08:10:30;102297.75;;;1.85;100.00
55610;BME280;41486;52.502;13.486;2024-01-30T08:12:59;102293.56;;;1.76;100.00
55610;BME280;41486;52.502;13.486;2024-01-30T08:15:31;102299.47;;;1.86;100.00
55610;BME280;41486;52.502;13.486;2024-01-30T08:17:59;102295.19;;;1.83;100.00
55610;BME280;41486;52.502;13.486;2024-01-30T08:20:29;102291.81;;;1.77;100.00
55610;BME280;41486;52.502;13.486;2024-01-30T08:22:58;102296.97;;;1.80;100.00
55610;BME280;41486;52.502;13.486;2024-01-30T08:25:28;102291.63;;;1.91;100.00
55610;BME280;41486;52.502;13.486;2024-01-30T08:27:57;102295.81;;;2.02;100.00
55610;BME280;41486;52.502;13.486;2024-01-30T08:30:27;102287.97;;;2.05;100.00
55610;BME280;41486;52.502;13.486;2024-01-30T08:32:56;102288.75;;;2.11;100.00
55610;BME280;41486;52.502;13.486;2024-01-30T08:35:27;102291.69;;;1.86;100.00
55610;BME280;41486;52.502;13.486;2024-01-30T08:37:59;102285.91;;;2.29;100.00
55610;BME280;41486;52.502;13.486;2024-01-30T08:40:29;102286.75;;;2.31;100.00
55610;BME280;41486;52.502;13.486;2024-01-30T08:42:58;102284.88;;;2.38;100.00
55610;BME280;41486;52.502;13.486;2024-01-30T08:45:27;102289.31;;;2.33;100.00
55610;BME280;41486;52.502;13.486;2024-01-30T08:47:56;102282.22;;;2.44;100.00
55610;BME280;41486;52.502;13.486;2024-01-30T08:50:25;102276.06;;;2.48;100.00
55610;BME280;41486;52.502;13.486;2024-01-30T08:57:19;102275.84;;;2.61;100.00
55610;BME280;41486;52.502;13.486;2024-01-30T08:59:47;102279.91;;;2.79;100.00
55610;BME280;41486;52.502;13.486;2024-01-30T09:02:16;102271.16;;;2.83;100.00
55610;BME280;41486;52.502;13.486;2024-01-30T09:04:45;102278.69;;;3.00;100.00
55610;BME280;41486;52.502;13.486;2024-01-30T09:07:17;102280.41;;;2.99;100.00
55610;BME280;41486;52.502;13.486;2024-01-30T09:09:46;102276.63;;;3.16;100.00
55610;BME280;41486;52.502;13.486;2024-01-30T09:12:16;102269.31;;;3.35;100.00
55610;BME280;41486;52.502;13.486;2024-01-30T09:14:47;102270.69;;;3.55;100.00
55610;BME280;41486;52.502;13.486;2024-01-30T09:17:17;102272.06;;;3.70;100.00
55610;BME280;41486;52.502;13.486;2024-01-30T09:19:46;102277.94;;;3.81;100.00
55610;BME280;41486;52.502;13.486;2024-01-30T09:22:14;102275.03;;;3.93;100.00
55610;BME280;41486;52.502;13.486;2024-01-30T09:24:42;102275.72;;;4.02;100.00
55610;BME280;41486;52.502;13.486;2024-01-30T09:27:12;102290.31;;;4.09;100.00
55610;BME280;41486;52.502;13.486;2024-01-30T09:29:41;102282.50;;;4.09;100.00
55610;BME280;41486;52.502;13.486;2024-01-30T09:32:13;102286.47;;;4.25;100.00
55610;BME280;41486;52.502;13.486;2024-01-30T09:34:42;102281.94;;;4.34;100.00
55610;BME280;41486;52.502;13.486;2024-01-30T09:37:11;102281.94;;;4.34;100.00
55610;BME280;41486;52.502;13.486;2024-01-30T09:39:42;102278.13;;;4.49;100.00
55610;BME280;41486;52.502;13.486;2024-01-30T09:42:18;102279.34;;;4.34;100.00
55610;BME280;41486;52.502;13.486;2024-01-30T09:44:51;102276.34;;;4.51;100.00
55610;BME280;41486;52.502;13.486;2024-01-30T09:47:22;102280.56;;;4.56;100.00
55610;BME280;41486;52.502;13.486;2024-01-30T09:49:51;102277.28;;;4.48;100.00
55610;BME280;41486;52.502;13.486;2024-01-30T09:52:19;102275.41;;;4.53;100.00
55610;BME280;41486;52.502;13.486;2024-01-30T09:54:49;102275.91;;;4.68;100.00
55610;BME280;41486;52.502;13.486;2024-01-30T09:57:19;102274.22;;;4.65;100.00
55610;BME280;41486;52.502;13.486;2024-01-30T09:59:48;102273.22;;;4.71;100.00
55610;BME280;41486;52.502;13.486;2024-01-30T10:02:19;102265.19;;;4.79;100.00
55610;BME280;41486;52.502;13.486;2024-01-30T10:04:51;102272.66;;;4.93;100.00
55610;BME280;41486;52.502;13.486;2024-01-30T10:07:20;102268.22;;;4.96;100.00
55610;BME280;41486;52.502;13.486;2024-01-30T10:09:50;102262.81;;;5.02;100.00
55610;BME280;41486;52.502;13.486;2024-01-30T10:12:20;102267.81;;;5.12;100.00
55610;BME280;41486;52.502;13.486;2024-01-30T10:14:48;102266.78;;;5.17;100.00
55610;BME280;41486;52.502;13.486;2024-01-30T10:17:17;102268.13;;;5.32;100.00
55610;BME280;41486;52.502;13.486;2024-01-30T10:20:04;102266.09;;;5.42;99.36
55610;BME280;41486;52.502;13.486;2024-01-30T10:22:36;102263.44;;;5.44;99.50
55610;BME280;41486;52.502;13.486;2024-01-30T10:25:19;102263.16;;;5.53;99.49
55610;BME280;41486;52.502;13.486;2024-01-30T10:28:08;102246.47;;;5.59;97.83
55610;BME280;41486;52.502;13.486;2024-01-30T10:30:45;102248.09;;;5.63;96.93
55610;BME280;41486;52.502;13.486;2024-01-30T10:33:21;102245.13;;;5.74;96.39
55610;BME280;41486;52.502;13.486;2024-01-30T10:35:51;102242.41;;;5.78;95.72
55610;BME280;41486;52.502;13.486;2024-01-30T10:38:20;102247.69;;;5.77;96.49
55610;BME280;41486;52.502;13.486;2024-01-30T10:40:51;102247.16;;;5.94;93.32
55610;BME280;41486;52.502;13.486;2024-01-30T10:43:31;102246.13;;;5.99;90.11
55610;BME280;41486;52.502;13.486;2024-01-30T10:46:07;102243.31;;;6.06;89.51
55610;BME280;41486;52.502;13.486;2024-01-30T10:48:42;102243.78;;;6.19;88.60
55610;BME280;41486;52.502;13.486;2024-01-30T10:51:13;102245.72;;;6.13;88.32
55610;BME280;41486;52.502;13.486;2024-01-30T10:53:43;102245.44;;;6.21;85.86
55610;BME280;41486;52.502;13.486;2024-01-30T10:56:16;102237.47;;;6.26;86.13
55610;BME280;41486;52.502;13.486;2024-01-30T10:58:45;102238.97;;;6.33;85.70
55610;BME280;41486;52.502;13.486;2024-01-30T11:01:13;102239.97;;;6.29;83.74
55610;BME280;41486;52.502;13.486;2024-01-30T11:03:42;102235.56;;;6.31;82.66
55610;BME280;41486;52.502;13.486;2024-01-30T11:06:19;102237.47;;;6.53;80.60
55610;BME280;41486;52.502;13.486;2024-01-30T11:09:00;102234.00;;;6.52;78.98
55610;BME280;41486;52.502;13.486;2024-01-30T11:11:28;102240.19;;;6.75;78.21
55610;BME280;41486;52.502;13.486;2024-01-30T11:14:00;102240.19;;;6.75;75.30
55610;BME280;41486;52.502;13.486;2024-01-30T11:16:33;102231.22;;;6.82;74.81
55610;BME280;41486;52.502;13.486;2024-01-30T11:19:03;102232.38;;;6.73;75.75
55610;BME280;41486;52.502;13.486;2024-01-30T11:21:41;102238.16;;;6.83;75.75
55610;BME280;41486;52.502;13.486;2024-01-30T11:24:14;102234.59;;;6.86;72.08
55610;BME280;41486;52.502;13.486;2024-01-30T11:26:45;102231.97;;;6.86;71.55
55610;BME280;41486;52.502;13.486;2024-01-30T11:29:13;102232.25;;;7.02;70.29
55610;BME280;41486;52.502;13.486;2024-01-30T11:31:51;102223.06;;;6.91;71.51
55610;BME280;41486;52.502;13.486;2024-01-30T11:34:20;102224.09;;;7.11;70.27
55610;BME280;41486;52.502;13.486;2024-01-30T11:36:55;102226.19;;;7.01;71.00
55610;BME280;41486;52.502;13.486;2024-01-30T11:39:26;102222.44;;;7.08;69.44
55610;BME280;41486;52.502;13.486;2024-01-30T11:41:59;102223.66;;;7.23;68.85
55610;BME280;41486;52.502;13.486;2024-01-30T11:44:28;102230.75;;;7.20;70.94
55610;BME280;41486;52.502;13.486;2024-01-30T11:46:56;102229.47;;;7.32;69.79
55610;BME280;41486;52.502;13.486;2024-01-30T11:49:25;102224.81;;;7.38;69.21
55610;BME280;41486;52.502;13.486;2024-01-30T11:51:54;102224.91;;;7.37;69.42
55610;BME280;41486;52.502;13.486;2024-01-30T11:54:23;102216.69;;;7.46;68.48
55610;BME280;41486;52.502;13.486;2024-01-30T11:56:51;102217.50;;;7.48;68.97
55610;BME280;41486;52.502;13.486;2024-01-30T11:59:19;102217.13;;;7.57;68.60
55610;BME280;41486;52.502;13.486;2024-01-30T12:01:51;102209.25;;;7.35;69.93
55610;BME280;41486;52.502;13.486;2024-01-30T12:04:22;102212.44;;;7.44;69.65
55610;BME280;41486;52.502;13.486;2024-01-30T12:06:52;102208.41;;;7.57;69.55
55610;BME280;41486;52.502;13.486;2024-01-30T12:09:21;102211.53;;;7.45;70.50
55610;BME280;41486;52.502;13.486;2024-01-30T12:11:49;102205.72;;;7.58;69.34
55610;BME280;41486;52.502;13.486;2024-01-30T12:14:18;102207.94;;;7.47;70.52
55610;BME280;41486;52.502;13.486;2024-01-30T12:16:49;102204.75;;;7.61;70.13
55610;BME280;41486;52.502;13.486;2024-01-30T12:19:23;102203.06;;;7.82;69.78
55610;BME280;41486;52.502;13.486;2024-01-30T12:21:56;102197.84;;;7.60;70.58
55610;BME280;41486;52.502;13.486;2024-01-30T12:24:31;102194.91;;;7.68;69.98
55610;BME280;41486;52.502;13.486;2024-01-30T12:27:00;102185.88;;;7.75;69.85
55610;BME280;41486;52.502;13.486;2024-01-30T12:29:32;102186.84;;;7.95;70.15
55610;BME280;41486;52.502;13.486;2024-01-30T12:32:06;102193.09;;;7.92;69.71
55610;BME280;41486;52.502;13.486;2024-01-30T12:34:40;102188.81;;;7.67;70.35
55610;BME280;41486;52.502;13.486;2024-01-30T12:37:26;102172.84;;;7.73;71.97
55610;BME280;41486;52.502;13.486;2024-01-30T12:39:59;102166.53;;;8.00;70.56
55610;BME280;41486;52.502;13.486;2024-01-30T12:42:30;102166.44;;;8.24;70.85
55610;BME280;41486;52.502;13.486;2024-01-30T12:44:59;102166.66;;;8.40;68.96
55610;BME280;41486;52.502;13.486;2024-01-30T12:47:28;102162.44;;;8.35;68.30
55610;BME280;41486;52.502;13.486;2024-01-30T12:49:56;102157.63;;;8.47;68.82
55610;BME280;41486;52.502;13.486;2024-01-30T12:52:25;102154.00;;;8.29;68.86
55610;BME280;41486;52.502;13.486;2024-01-30T12:54:56;102152.94;;;8.12;71.70
55610;BME280;41486;52.502;13.486;2024-01-30T12:57:25;102142.06;;;8.42;69.98
55610;BME280;41486;52.502;13.486;2024-01-30T12:59:53;102143.53;;;8.49;70.80